sensor_id;sensor_type;location;lat;lon;timestamp;P1;durP1;ratioP1;P2;durP2;ratioP2
23449;SDS011;11897;45.438;12.128;2023-01-30T00:01:34;16.67;;;8.73;;
23449;SDS011;11897;45.438;12.128;2023-01-30T00:04:00;21.70;;;8.93;;
23449;SDS011;11897;45.438;12.128;2023-01-30T00:06:27;19.20;;;7.50;;
23449;SDS011;11897;45.438;12.128;2023-01-30T00:08:54;19.87;;;9.90;;
23449;SDS011;11897;45.438;12.128;2023-01-30T00:11:22;17.40;;;9.20;;
23449;SDS011;11897;45.438;12.128;2023-01-30T00:13:49;19.83;;;8.37;;
23449;SDS011;11897;45.438;12.128;2023-01-30T00:16:16;15.40;;;7.17;;
23449;SDS011;11897;45.438;12.128;2023-01-30T00:18:42;27.73;;;10.40;;
23449;SDS011;11897;45.438;12.128;2023-01-30T00:21:10;23.10;;;9.83;;
23449;SDS011;11897;45.438;12.128;2023-01-30T00:23:37;16.90;;;7.70;;
23449;SDS011;11897;45.438;12.128;2023-01-30T00:26:04;20.87;;;8.87;;
23449;SDS011;11897;45.438;12.128;2023-01-30T00:28:32;23.60;;;7.33;;
23449;SDS011;11897;45.438;12.128;2023-01-30T00:30:59;21.60;;;7.73;;
23449;SDS011;11897;45.438;12.128;2023-01-30T00:33:27;21.30;;;7.97;;
23449;SDS011;11897;45.438;12.128;2023-01-30T00:35:55;23.03;;;9.23;;
23449;SDS011;11897;45.438;12.128;2023-01-30T00:38:22;16.87;;;8.00;;
23449;SDS011;11897;45.438;12.128;2023-01-30T00:40:49;18.87;;;7.53;;
23449;SDS011;11897;45.438;12.128;2023-01-30T00:43:16;15.93;;;7.53;;
23449;SDS011;11897;45.438;12.128;2023-01-30T00:46:02;18.03;;;7.47;;
23449;SDS011;11897;45.438;12.128;2023-01-30T00:48:46;19.20;;;7.60;;
23449;SDS011;11897;45.438;12.128;2023-01-30T00:51:14;13.30;;;6.73;;
23449;SDS011;11897;45.438;12.128;2023-01-30T00:53:42;18.23;;;7.10;;
23449;SDS011;11897;45.438;12.128;2023-01-30T00:56:08;17.40;;;8.23;;
23449;SDS011;11897;45.438;12.128;2023-01-30T00:58:35;23.60;;;10.07;;
23449;SDS011;11897;45.438;12.128;2023-01-30T01:01:03;19.47;;;9.00;;
23449;SDS011;11897;45.438;12.128;2023-01-30T01:03:30;16.90;;;7.73;;
23449;SDS011;11897;45.438;12.128;2023-01-30T01:05:56;19.93;;;8.10;;
23449;SDS011;11897;45.438;12.128;2023-01-30T01:08:23;22.63;;;10.37;;
23449;SDS011;11897;45.438;12.128;2023-01-30T01:10:50;17.07;;;9.83;;
23449;SDS011;11897;45.438;12.128;2023-01-30T01:13:17;28.00;;;11.37;;
23449;SDS011;11897;45.438;12.128;2023-01-30T01:15:45;23.23;;;10.30;;
23449;SDS011;11897;45.438;12.128;2023-01-30T01:18:16;21.20;;;10.27;;
23449;SDS011;11897;45.438;12.128;2023-01-30T01:20:44;26.63;;;10.50;;
23449;SDS011;11897;45.438;12.128;2023-01-30T01:23:12;15.93;;;8.80;;
23449;SDS011;11897;45.438;12.128;2023-01-30T01:25:39;24.57;;;9.73;;
23449;SDS011;11897;45.438;12.128;2023-01-30T01:28:06;24.07;;;9.13;;
23449;SDS011;11897;45.438;12.128;2023-01-30T01:30:33;21.53;;;9.40;;
23449;SDS011;11897;45.438;12.128;2023-01-30T01:33:00;17.00;;;9.07;;
23449;SDS011;11897;45.438;12.128;2023-01-30T01:35:28;20.90;;;9.30;;
23449;SDS011;11897;45.438;12.128;2023-01-30T01:37:55;20.30;;;8.80;;
23449;SDS011;11897;45.438;12.128;2023-01-30T01:40:22;20.90;;;9.73;;
23449;SDS011;11897;45.438;12.128;2023-01-30T01:43:15;20.37;;;8.13;;
23449;SDS011;11897;45.438;12.128;2023-01-30T01:45:44;15.97;;;8.57;;
23449;SDS011;11897;45.438;12.128;2023-01-30T01:48:14;22.40;;;9.37;;
23449;SDS011;11897;45.438;12.128;2023-01-30T01:50:45;21.07;;;8.73;;
23449;SDS011;11897;45.438;12.128;2023-01-30T01:53:13;23.53;;;8.73;;
23449;SDS011;11897;45.438;12.128;2023-01-30T01:55:41;17.40;;;7.57;;
23449;SDS011;11897;45.438;12.128;2023-01-30T01:58:10;16.30;;;7.13;;
23449;SDS011;11897;45.438;12.128;2023-01-30T02:00:37;23.97;;;10.23;;
23449;SDS011;11897;45.438;12.128;2023-01-30T02:03:08;19.97;;;8.77;;
23449;SDS011;11897;45.438;12.128;2023-01-30T02:05:37;15.47;;;8.30;;
23449;SDS011;11897;45.438;12.128;2023-01-30T02:08:10;19.47;;;8.30;;
23449;SDS011;11897;45.438;12.128;2023-01-30T02:10:42;23.07;;;9.67;;
23449;SDS011;11897;45.438;12.128;2023-01-30T02:13:14;22.47;;;10.03;;
23449;SDS011;11897;45.438;12.128;2023-01-30T02:15:41;30.80;;;10.33;;
23449;SDS011;11897;45.438;12.128;2023-01-30T02:18:10;22.47;;;10.67;;
23449;SDS011;11897;45.438;12.128;2023-01-30T02:20:42;23.33;;;8.57;;
23449;SDS011;11897;45.438;12.128;2023-01-30T02:23:22;21.97;;;9.43;;
23449;SDS011;11897;45.438;12.128;2023-01-30T02:26:00;23.23;;;10.43;;
23449;SDS011;11897;45.438;12.128;2023-01-30T02:28:39;22.93;;;9.73;;
23449;SDS011;11897;45.438;12.128;2023-01-30T02:34:13;24.80;;;8.50;;
23449;SDS011;11897;45.438;12.128;2023-01-30T02:36:53;24.10;;;10.63;;
23449;SDS011;11897;45.438;12.128;2023-01-30T02:39:31;25.60;;;10.27;;
23449;SDS011;11897;45.438;12.128;2023-01-30T02:42:02;23.20;;;8.90;;
23449;SDS011;11897;45.438;12.128;2023-01-30T02:44:32;24.43;;;9.77;;
23449;SDS011;11897;45.438;12.128;2023-01-30T02:47:01;25.47;;;9.97;;
23449;SDS011;11897;45.438;12.128;2023-01-30T02:49:31;23.13;;;9.17;;
23449;SDS011;11897;45.438;12.128;2023-01-30T02:52:00;22.70;;;9.30;;
23449;SDS011;11897;45.438;12.128;2023-01-30T02:54:28;19.07;;;9.00;;
23449;SDS011;11897;45.438;12.128;2023-01-30T02:56:56;22.20;;;10.50;;
23449;SDS011;11897;45.438;12.128;2023-01-30T02:59:24;21.17;;;9.13;;
23449;SDS011;11897;45.438;12.128;2023-01-30T03:01:57;21.47;;;9.53;;
23449;SDS011;11897;45.438;12.128;2023-01-30T03:04:32;25.67;;;10.47;;
23449;SDS011;11897;45.438;12.128;2023-01-30T03:07:09;21.70;;;8.43;;
23449;SDS011;11897;45.438;12.128;2023-01-30T03:09:41;22.43;;;9.87;;
23449;SDS011;11897;45.438;12.128;2023-01-30T03:12:14;22.20;;;9.17;;
23449;SDS011;11897;45.438;12.128;2023-01-30T03:14:45;23.13;;;8.50;;
23449;SDS011;11897;45.438;12.128;2023-01-30T03:17:13;17.67;;;10.03;;
23449;SDS011;11897;45.438;12.128;2023-01-30T03:19:43;16.87;;;8.37;;
23449;SDS011;11897;45.438;12.128;2023-01-30T03:22:10;21.90;;;9.20;;
23449;SDS011;11897;45.438;12.128;2023-01-30T03:24:36;19.53;;;7.73;;
23449;SDS011;11897;45.438;12.128;2023-01-30T03:27:06;14.97;;;7.93;;
23449;SDS011;11897;45.438;12.128;2023-01-30T03:29:35;20.60;;;9.07;;
23449;SDS011;11897;45.438;12.128;2023-01-30T03:32:04;20.43;;;8.30;;
23449;SDS011;11897;45.438;12.128;2023-01-30T03:34:31;20.23;;;10.03;;
23449;SDS011;11897;45.438;12.128;2023-01-30T03:36:59;19.43;;;9.23;;
23449;SDS011;11897;45.438;12.128;2023-01-30T03:39:26;32.43;;;11.67;;
23449;SDS011;11897;45.438;12.128;2023-01-30T03:41:56;29.13;;;11.43;;
23449;SDS011;11897;45.438;12.128;2023-01-30T03:44:23;21.20;;;9.23;;
23449;SDS011;11897;45.438;12.128;2023-01-30T03:46:52;21.27;;;9.20;;
23449;SDS011;11897;45.438;12.128;2023-01-30T03:49:19;23.57;;;9.90;;
23449;SDS011;11897;45.438;12.128;2023-01-30T03:51:48;26.23;;;10.17;;
23449;SDS011;11897;45.438;12.128;2023-01-30T03:54:17;24.77;;;10.40;;
23449;SDS011;11897;45.438;12.128;2023-01-30T03:56:43;29.07;;;11.30;;
23449;SDS011;11897;45.438;12.128;2023-01-30T03:59:11;27.17;;;10.70;;
23449;SDS011;11897;45.438;12.128;2023-01-30T04:01:46;28.00;;;12.17;;
23449;SDS011;11897;45.438;12.128;2023-01-30T04:04:13;19.30;;;10.33;;
23449;SDS011;11897;45.438;12.128;2023-01-30T04:06:43;27.87;;;9.00;;
23449;SDS011;11897;45.438;12.128;2023-01-30T04:09:14;28.17;;;11.07;;
23449;SDS011;11897;45.438;12.128;2023-01-30T04:11:46;20.27;;;9.27;;
23449;SDS011;11897;45.438;12.128;2023-01-30T04:14:13;29.47;;;10.60;;
23449;SDS011;11897;45.438;12.128;2023-01-30T04:17:00;19.70;;;10.43;;
23449;SDS011;11897;45.438;12.128;2023-01-30T04:19:48;27.53;;;11.37;;
23449;SDS011;11897;45.438;12.128;2023-01-30T04:22:17;22.80;;;9.83;;
23449;SDS011;11897;45.438;12.128;2023-01-30T04:24:44;29.67;;;11.13;;
23449;SDS011;11897;45.438;12.128;2023-01-30T04:27:12;17.33;;;9.30;;
23449;SDS011;11897;45.438;12.128;2023-01-30T04:29:55;22.07;;;10.93;;
23449;SDS011;11897;45.438;12.128;2023-01-30T04:32:24;19.60;;;10.50;;
23449;SDS011;11897;45.438;12.128;2023-01-30T04:34:51;19.63;;;9.07;;
23449;SDS011;11897;45.438;12.128;2023-01-30T04:37:18;22.57;;;10.80;;
23449;SDS011;11897;45.438;12.128;2023-01-30T04:39:47;22.97;;;10.30;;
23449;SDS011;11897;45.438;12.128;2023-01-30T04:42:17;20.13;;;8.80;;
23449;SDS011;11897;45.438;12.128;2023-01-30T04:45:03;20.53;;;9.50;;
23449;SDS011;11897;45.438;12.128;2023-01-30T04:47:38;22.73;;;10.23;;
23449;SDS011;11897;45.438;12.128;2023-01-30T04:50:06;21.17;;;9.33;;
23449;SDS011;11897;45.438;12.128;2023-01-30T04:52:35;20.57;;;8.73;;
23449;SDS011;11897;45.438;12.128;2023-01-30T04:55:03;21.97;;;9.40;;
23449;SDS011;11897;45.438;12.128;2023-01-30T04:57:32;18.47;;;10.33;;
23449;SDS011;11897;45.438;12.128;2023-01-30T05:00:03;23.27;;;11.13;;
23449;SDS011;11897;45.438;12.128;2023-01-30T05:02:31;23.03;;;10.07;;
23449;SDS011;11897;45.438;12.128;2023-01-30T05:05:00;22.67;;;9.20;;
23449;SDS011;11897;45.438;12.128;2023-01-30T05:07:28;23.43;;;9.03;;
23449;SDS011;11897;45.438;12.128;2023-01-30T05:09:56;23.47;;;9.83;;
23449;SDS011;11897;45.438;12.128;2023-01-30T05:12:22;22.10;;;9.43;;
23449;SDS011;11897;45.438;12.128;2023-01-30T05:14:50;15.67;;;7.67;;
23449;SDS011;11897;45.438;12.128;2023-01-30T05:17:22;22.10;;;9.20;;
23449;SDS011;11897;45.438;12.128;2023-01-30T05:19:48;23.03;;;8.60;;
23449;SDS011;11897;45.438;12.128;2023-01-30T05:22:15;25.17;;;8.53;;
23449;SDS011;11897;45.438;12.128;2023-01-30T05:24:43;18.73;;;7.73;;
23449;SDS011;11897;45.438;12.128;2023-01-30T05:27:09;16.43;;;8.37;;
23449;SDS011;11897;45.438;12.128;2023-01-30T05:29:37;21.07;;;7.47;;
23449;SDS011;11897;45.438;12.128;2023-01-30T05:32:05;23.47;;;8.80;;
23449;SDS011;11897;45.438;12.128;2023-01-30T05:34:32;19.33;;;7.53;;
23449;SDS011;11897;45.438;12.128;2023-01-30T05:36:59;20.73;;;8.10;;
23449;SDS011;11897;45.438;12.128;2023-01-30T05:39:25;26.83;;;8.87;;
23449;SDS011;11897;45.438;12.128;2023-01-30T05:41:52;15.43;;;7.13;;
23449;SDS011;11897;45.438;12.128;2023-01-30T05:44:19;22.70;;;8.87;;
23449;SDS011;11897;45.438;12.128;2023-01-30T05:46:45;19.40;;;7.87;;
23449;SDS011;11897;45.438;12.128;2023-01-30T05:49:13;22.33;;;8.97;;
23449;SDS011;11897;45.438;12.128;2023-01-30T05:51:40;15.57;;;8.50;;
23449;SDS011;11897;45.438;12.128;2023-01-30T05:54:07;24.50;;;7.67;;
23449;SDS011;11897;45.438;12.128;2023-01-30T05:56:33;19.90;;;8.10;;
23449;SDS011;11897;45.438;12.128;2023-01-30T05:59:01;20.33;;;7.67;;
23449;SDS011;11897;45.438;12.128;2023-01-30T06:01:27;23.07;;;8.07;;
23449;SDS011;11897;45.438;12.128;2023-01-30T06:03:55;19.60;;;7.87;;
23449;SDS011;11897;45.438;12.128;2023-01-30T06:06:24;18.03;;;7.87;;
23449;SDS011;11897;45.438;12.128;2023-01-30T06:08:51;12.43;;;7.23;;
23449;SDS011;11897;45.438;12.128;2023-01-30T06:11:18;19.77;;;8.80;;
23449;SDS011;11897;45.438;12.128;2023-01-30T06:13:45;21.43;;;8.27;;
23449;SDS011;11897;45.438;12.128;2023-01-30T06:16:12;21.60;;;8.80;;
23449;SDS011;11897;45.438;12.128;2023-01-30T06:18:39;20.40;;;7.83;;
23449;SDS011;11897;45.438;12.128;2023-01-30T06:21:06;22.33;;;9.87;;
23449;SDS011;11897;45.438;12.128;2023-01-30T06:23:35;13.77;;;7.73;;
23449;SDS011;11897;45.438;12.128;2023-01-30T06:26:03;14.97;;;6.33;;
23449;SDS011;11897;45.438;12.128;2023-01-30T06:28:29;21.93;;;8.10;;
23449;SDS011;11897;45.438;12.128;2023-01-30T06:30:56;18.83;;;7.80;;
23449;SDS011;11897;45.438;12.128;2023-01-30T06:33:23;34.33;;;10.63;;
23449;SDS011;11897;45.438;12.128;2023-01-30T06:35:51;11.97;;;7.10;;
23449;SDS011;11897;45.438;12.128;2023-01-30T06:38:19;21.70;;;7.07;;
23449;SDS011;11897;45.438;12.128;2023-01-30T06:40:47;22.03;;;9.40;;
23449;SDS011;11897;45.438;12.128;2023-01-30T06:43:14;20.50;;;8.17;;
23449;SDS011;11897;45.438;12.128;2023-01-30T06:45:42;35.80;;;7.87;;
23449;SDS011;11897;45.438;12.128;2023-01-30T06:48:09;23.60;;;8.07;;
23449;SDS011;11897;45.438;12.128;2023-01-30T06:50:35;17.53;;;8.80;;
23449;SDS011;11897;45.438;12.128;2023-01-30T06:53:04;23.20;;;9.00;;
23449;SDS011;11897;45.438;12.128;2023-01-30T06:55:33;19.63;;;9.47;;
23449;SDS011;11897;45.438;12.128;2023-01-30T06:58:03;15.43;;;7.70;;
23449;SDS011;11897;45.438;12.128;2023-01-30T07:00:34;24.10;;;7.40;;
23449;SDS011;11897;45.438;12.128;2023-01-30T07:03:01;17.70;;;8.13;;
23449;SDS011;11897;45.438;12.128;2023-01-30T07:05:39;13.93;;;7.23;;
23449;SDS011;11897;45.438;12.128;2023-01-30T07:08:06;23.40;;;8.90;;
23449;SDS011;11897;45.438;12.128;2023-01-30T07:10:34;26.10;;;8.37;;
23449;SDS011;11897;45.438;12.128;2023-01-30T07:13:05;20.00;;;7.90;;
23449;SDS011;11897;45.438;12.128;2023-01-30T07:15:32;19.23;;;8.33;;
23449;SDS011;11897;45.438;12.128;2023-01-30T07:17:59;18.67;;;6.60;;
23449;SDS011;11897;45.438;12.128;2023-01-30T07:20:26;14.60;;;7.90;;
23449;SDS011;11897;45.438;12.128;2023-01-30T07:22:54;21.10;;;8.47;;
23449;SDS011;11897;45.438;12.128;2023-01-30T07:25:22;22.23;;;9.03;;
23449;SDS011;11897;45.438;12.128;2023-01-30T07:27:49;19.53;;;8.50;;
23449;SDS011;11897;45.438;12.128;2023-01-30T07:30:21;23.27;;;8.13;;
23449;SDS011;11897;45.438;12.128;2023-01-30T07:32:51;24.23;;;9.17;;
23449;SDS011;11897;45.438;12.128;2023-01-30T07:35:18;15.37;;;7.73;;
23449;SDS011;11897;45.438;12.128;2023-01-30T07:37:45;22.70;;;9.07;;
23449;SDS011;11897;45.438;12.128;2023-01-30T07:40:13;20.13;;;7.40;;
23449;SDS011;11897;45.438;12.128;2023-01-30T07:42:39;18.53;;;7.63;;
23449;SDS011;11897;45.438;12.128;2023-01-30T07:45:07;20.67;;;8.07;;
23449;SDS011;11897;45.438;12.128;2023-01-30T07:47:35;23.07;;;9.37;;
23449;SDS011;11897;45.438;12.128;2023-01-30T07:50:02;20.40;;;8.13;;
23449;SDS011;11897;45.438;12.128;2023-01-30T07:52:29;19.27;;;7.53;;
23449;SDS011;11897;45.438;12.128;2023-01-30T07:54:56;22.13;;;9.20;;
23449;SDS011;11897;45.438;12.128;2023-01-30T07:57:22;32.43;;;9.50;;
23449;SDS011;11897;45.438;12.128;2023-01-30T07:59:49;15.73;;;6.83;;
23449;SDS011;11897;45.438;12.128;2023-01-30T08:02:16;19.70;;;9.03;;
23449;SDS011;11897;45.438;12.128;2023-01-30T08:04:44;20.07;;;8.47;;
23449;SDS011;11897;45.438;12.128;2023-01-30T13:32:13;16.17;;;7.30;;
23449;SDS011;11897;45.438;12.128;2023-01-30T13:34:42;16.20;;;6.50;;
23449;SDS011;11897;45.438;12.128;2023-01-30T13:37:11;17.50;;;7.23;;
23449;SDS011;11897;45.438;12.128;2023-01-30T13:39:38;15.53;;;7.13;;
23449;SDS011;11897;45.438;12.128;2023-01-30T13:42:06;15.43;;;6.70;;
23449;SDS011;11897;45.438;12.128;2023-01-30T13:44:36;14.30;;;6.50;;
23449;SDS011;11897;45.438;12.128;2023-01-30T13:47:07;15.33;;;7.50;;
23449;SDS011;11897;45.438;12.128;2023-01-30T13:49:39;12.40;;;6.40;;
23449;SDS011;11897;45.438;12.128;2023-01-30T13:52:09;11.87;;;6.50;;
23449;SDS011;11897;45.438;12.128;2023-01-30T13:54:42;13.53;;;6.50;;
23449;SDS011;11897;45.438;12.128;2023-01-30T13:57:17;13.53;;;6.20;;
23449;SDS011;11897;45.438;12.128;2023-01-30T14:02:37;14.30;;;7.13;;
23449;SDS011;11897;45.438;12.128;2023-01-30T14:08:11;16.47;;;6.17;;
23449;SDS011;11897;45.438;12.128;2023-01-30T14:10:42;15.00;;;6.43;;
23449;SDS011;11897;45.438;12.128;2023-01-30T14:13:11;11.23;;;6.37;;
23449;SDS011;11897;45.438;12.128;2023-01-30T14:15:39;14.10;;;6.07;;
23449;SDS011;11897;45.438;12.128;2023-01-30T14:18:16;64.87;;;19.50;;
23449;SDS011;11897;45.438;12.128;2023-01-30T14:20:45;14.03;;;7.93;;
23449;SDS011;11897;45.438;12.128;2023-01-30T14:23:20;15.47;;;6.80;;
23449;SDS011;11897;45.438;12.128;2023-01-30T14:25:48;11.53;;;6.27;;
23449;SDS011;11897;45.438;12.128;2023-01-30T14:28:42;17.03;;;7.27;;
23449;SDS011;11897;45.438;12.128;2023-01-30T14:31:10;12.23;;;5.97;;
23449;SDS011;11897;45.438;12.128;2023-01-30T14:33:47;11.33;;;5.60;;
23449;SDS011;11897;45.438;12.128;2023-01-30T14:47:20;11.10;;;5.47;;
23449;SDS011;11897;45.438;12.128;2023-01-30T14:49:48;13.70;;;6.17;;
23449;SDS011;11897;45.438;12.128;2023-01-30T14:52:23;14.43;;;6.33;;
23449;SDS011;11897;45.438;12.128;2023-01-30T14:54:52;12.07;;;5.77;;
23449;SDS011;11897;45.438;12.128;2023-01-30T14:57:21;14.20;;;5.57;;
23449;SDS011;11897;45.438;12.128;2023-01-30T14:59:49;11.67;;;6.17;;
23449;SDS011;11897;45.438;12.128;2023-01-30T15:02:21;13.13;;;5.87;;
23449;SDS011;11897;45.438;12.128;2023-01-30T15:04:52;12.27;;;5.90;;
23449;SDS011;11897;45.438;12.128;2023-01-30T15:07:21;17.30;;;5.77;;
23449;SDS011;11897;45.438;12.128;2023-01-30T15:09:50;12.17;;;6.00;;
23449;SDS011;11897;45.438;12.128;2023-01-30T15:12:27;12.77;;;5.23;;
23449;SDS011;11897;45.438;12.128;2023-01-30T15:15:01;9.50;;;5.90;;
23449;SDS011;11897;45.438;12.128;2023-01-30T15:17:37;13.43;;;7.17;;
23449;SDS011;11897;45.438;12.128;2023-01-30T15:23:10;12.40;;;5.63;;
23449;SDS011;11897;45.438;12.128;2023-01-30T15:25:42;14.70;;;6.30;;
23449;SDS011;11897;45.438;12.128;2023-01-30T15:28:15;18.27;;;6.13;;
23449;SDS011;11897;45.438;12.128;2023-01-30T15:30:51;11.23;;;5.73;;
23449;SDS011;11897;45.438;12.128;2023-01-30T15:33:23;11.73;;;5.30;;
23449;SDS011;11897;45.438;12.128;2023-01-30T15:35:51;14.40;;;6.23;;
23449;SDS011;11897;45.438;12.128;2023-01-30T15:38:22;10.80;;;4.77;;
23449;SDS011;11897;45.438;12.128;2023-01-30T15:40:50;13.40;;;5.47;;
23449;SDS011;11897;45.438;12.128;2023-01-30T15:43:20;12.53;;;5.00;;
23449;SDS011;11897;45.438;12.128;2023-01-30T15:45:52;8.83;;;4.53;;
23449;SDS011;11897;45.438;12.128;2023-01-30T15:48:34;12.43;;;4.87;;
23449;SDS011;11897;45.438;12.128;2023-01-30T15:51:03;13.70;;;4.67;;
23449;SDS011;11897;45.438;12.128;2023-01-30T15:53:30;13.40;;;5.63;;
23449;SDS011;11897;45.438;12.128;2023-01-30T15:55:58;11.20;;;5.63;;
23449;SDS011;11897;45.438;12.128;2023-01-30T15:58:25;14.03;;;5.67;;
23449;SDS011;11897;45.438;12.128;2023-01-30T16:00:53;15.13;;;6.00;;
23449;SDS011;11897;45.438;12.128;2023-01-30T16:03:21;12.17;;;5.57;;
23449;SDS011;11897;45.438;12.128;2023-01-30T16:05:51;10.90;;;5.10;;
23449;SDS011;11897;45.438;12.128;2023-01-30T16:08:20;17.13;;;6.20;;
23449;SDS011;11897;45.438;12.128;2023-01-30T16:10:47;13.77;;;6.17;;
23449;SDS011;11897;45.438;12.128;2023-01-30T16:13:14;12.87;;;5.83;;
23449;SDS011;11897;45.438;12.128;2023-01-30T16:15:44;16.53;;;6.60;;
23449;SDS011;11897;45.438;12.128;2023-01-30T16:18:14;16.20;;;7.20;;
23449;SDS011;11897;45.438;12.128;2023-01-30T16:20:44;11.97;;;6.10;;
23449;SDS011;11897;45.438;12.128;2023-01-30T16:23:17;11.43;;;6.53;;
23449;SDS011;11897;45.438;12.128;2023-01-30T16:25:45;15.07;;;5.37;;
23449;SDS011;11897;45.438;12.128;2023-01-30T16:28:18;11.07;;;4.87;;
23449;SDS011;11897;45.438;12.128;2023-01-30T16:30:44;12.80;;;5.40;;
23449;SDS011;11897;45.438;12.128;2023-01-30T16:33:14;18.57;;;5.73;;
23449;SDS011;11897;45.438;12.128;2023-01-30T16:35:42;14.40;;;4.77;;
23449;SDS011;11897;45.438;12.128;2023-01-30T16:38:33;19.77;;;6.80;;
23449;SDS011;11897;45.438;12.128;2023-01-30T16:41:00;19.13;;;6.90;;
23449;SDS011;11897;45.438;12.128;2023-01-30T16:43:28;16.17;;;6.77;;
23449;SDS011;11897;45.438;12.128;2023-01-30T16:48:37;11.33;;;5.30;;
23449;SDS011;11897;45.438;12.128;2023-01-30T16:51:15;21.03;;;7.13;;
23449;SDS011;11897;45.438;12.128;2023-01-30T16:53:52;14.43;;;5.70;;
23449;SDS011;11897;45.438;12.128;2023-01-30T16:56:25;12.47;;;6.07;;
23449;SDS011;11897;45.438;12.128;2023-01-30T16:58:53;11.90;;;5.60;;
23449;SDS011;11897;45.438;12.128;2023-01-30T17:01:21;11.60;;;5.90;;
23449;SDS011;11897;45.438;12.128;2023-01-30T17:03:50;17.10;;;6.40;;
23449;SDS011;11897;45.438;12.128;2023-01-30T17:06:19;17.13;;;5.77;;
23449;SDS011;11897;45.438;12.128;2023-01-30T17:08:48;11.30;;;5.30;;
23449;SDS011;11897;45.438;12.128;2023-01-30T17:11:29;14.90;;;5.80;;
23449;SDS011;11897;45.438;12.128;2023-01-30T17:14:13;16.07;;;5.93;;
23449;SDS011;11897;45.438;12.128;2023-01-30T17:16:41;16.80;;;6.57;;
23449;SDS011;11897;45.438;12.128;2023-01-30T17:19:10;13.07;;;6.40;;
23449;SDS011;11897;45.438;12.128;2023-01-30T17:21:41;16.27;;;6.33;;
23449;SDS011;11897;45.438;12.128;2023-01-30T17:24:10;14.63;;;5.23;;
23449;SDS011;11897;45.438;12.128;2023-01-30T17:26:38;18.50;;;6.47;;
23449;SDS011;11897;45.438;12.128;2023-01-30T17:29:05;12.90;;;5.10;;
23449;SDS011;11897;45.438;12.128;2023-01-30T17:31:32;14.60;;;5.03;;
23449;SDS011;11897;45.438;12.128;2023-01-30T17:33:58;13.23;;;6.13;;
23449;SDS011;11897;45.438;12.128;2023-01-30T17:36:26;16.27;;;6.63;;
23449;SDS011;11897;45.438;12.128;2023-01-30T17:38:54;13.23;;;6.30;;
23449;SDS011;11897;45.438;12.128;2023-01-30T17:41:24;12.37;;;6.47;;
23449;SDS011;11897;45.438;12.128;2023-01-30T17:43:51;13.27;;;6.07;;
23449;SDS011;11897;45.438;12.128;2023-01-30T17:46:18;12.63;;;5.57;;
23449;SDS011;11897;45.438;12.128;2023-01-30T17:48:47;17.70;;;6.83;;
23449;SDS011;11897;45.438;12.128;2023-01-30T17:51:16;15.80;;;6.30;;
23449;SDS011;11897;45.438;12.128;2023-01-30T17:53:43;15.57;;;6.77;;
23449;SDS011;11897;45.438;12.128;2023-01-30T17:56:13;14.80;;;6.87;;
23449;SDS011;11897;45.438;12.128;2023-01-30T17:58:43;16.27;;;6.50;;
23449;SDS011;11897;45.438;12.128;2023-01-30T18:01:09;13.63;;;6.63;;
23449;SDS011;11897;45.438;12.128;2023-01-30T18:03:40;17.53;;;6.93;;
23449;SDS011;11897;45.438;12.128;2023-01-30T18:06:07;17.07;;;6.47;;
23449;SDS011;11897;45.438;12.128;2023-01-30T18:08:35;12.67;;;5.50;;
23449;SDS011;11897;45.438;12.128;2023-01-30T18:11:02;19.77;;;7.03;;
23449;SDS011;11897;45.438;12.128;2023-01-30T18:13:29;21.43;;;7.17;;
23449;SDS011;11897;45.438;12.128;2023-01-30T18:15:57;16.87;;;7.07;;
23449;SDS011;11897;45.438;12.128;2023-01-30T18:18:27;22.13;;;7.43;;
23449;SDS011;11897;45.438;12.128;2023-01-30T18:20:54;17.27;;;7.03;;
23449;SDS011;11897;45.438;12.128;2023-01-30T18:23:21;13.97;;;6.73;;
23449;SDS011;11897;45.438;12.128;2023-01-30T18:25:48;18.03;;;6.93;;
23449;SDS011;11897;45.438;12.128;2023-01-30T18:28:15;16.87;;;7.27;;
23449;SDS011;11897;45.438;12.128;2023-01-30T18:30:42;16.00;;;6.47;;
23449;SDS011;11897;45.438;12.128;2023-01-30T18:33:10;15.23;;;6.47;;
23449;SDS011;11897;45.438;12.128;2023-01-30T18:35:36;13.63;;;6.37;;
23449;SDS011;11897;45.438;12.128;2023-01-30T18:38:03;20.20;;;7.53;;
23449;SDS011;11897;45.438;12.128;2023-01-30T18:40:30;16.47;;;6.30;;
23449;SDS011;11897;45.438;12.128;2023-01-30T18:42:57;15.07;;;6.60;;
23449;SDS011;11897;45.438;12.128;2023-01-30T18:45:23;16.47;;;6.90;;
23449;SDS011;11897;45.438;12.128;2023-01-30T18:47:50;21.83;;;8.17;;
23449;SDS011;11897;45.438;12.128;2023-01-30T18:50:18;20.73;;;7.73;;
23449;SDS011;11897;45.438;12.128;2023-01-30T18:52:45;22.20;;;8.87;;
23449;SDS011;11897;45.438;12.128;2023-01-30T18:55:12;21.33;;;7.80;;
23449;SDS011;11897;45.438;12.128;2023-01-30T18:57:39;15.80;;;7.97;;
23449;SDS011;11897;45.438;12.128;2023-01-30T19:00:06;16.77;;;7.87;;
23449;SDS011;11897;45.438;12.128;2023-01-30T19:02:33;15.60;;;7.03;;
23449;SDS011;11897;45.438;12.128;2023-01-30T19:04:59;16.80;;;7.03;;
23449;SDS011;11897;45.438;12.128;2023-01-30T19:07:28;15.53;;;6.17;;
23449;SDS011;11897;45.438;12.128;2023-01-30T19:09:54;15.67;;;7.13;;
23449;SDS011;11897;45.438;12.128;2023-01-30T19:12:21;19.30;;;7.13;;
23449;SDS011;11897;45.438;12.128;2023-01-30T19:15:05;15.17;;;7.33;;
23449;SDS011;11897;45.438;12.128;2023-01-30T19:17:32;16.40;;;8.00;;
23449;SDS011;11897;45.438;12.128;2023-01-30T19:19:59;19.07;;;7.60;;
23449;SDS011;11897;45.438;12.128;2023-01-30T19:22:28;25.40;;;7.13;;
23449;SDS011;11897;45.438;12.128;2023-01-30T19:24:54;19.63;;;7.63;;
23449;SDS011;11897;45.438;12.128;2023-01-30T19:27:21;21.77;;;7.17;;
23449;SDS011;11897;45.438;12.128;2023-01-30T19:29:47;17.00;;;7.40;;
23449;SDS011;11897;45.438;12.128;2023-01-30T19:32:14;19.23;;;7.23;;
23449;SDS011;11897;45.438;12.128;2023-01-30T19:34:41;37.90;;;8.17;;
23449;SDS011;11897;45.438;12.128;2023-01-30T19:37:09;18.33;;;7.77;;
23449;SDS011;11897;45.438;12.128;2023-01-30T19:39:37;16.63;;;7.67;;
23449;SDS011;11897;45.438;12.128;2023-01-30T19:42:04;34.20;;;13.40;;
23449;SDS011;11897;45.438;12.128;2023-01-30T19:44:30;21.67;;;8.60;;
23449;SDS011;11897;45.438;12.128;2023-01-30T19:46:57;21.47;;;8.80;;
23449;SDS011;11897;45.438;12.128;2023-01-30T19:49:24;19.70;;;8.50;;
23449;SDS011;11897;45.438;12.128;2023-01-30T19:51:50;23.47;;;9.90;;
23449;SDS011;11897;45.438;12.128;2023-01-30T19:54:17;16.57;;;7.07;;
23449;SDS011;11897;45.438;12.128;2023-01-30T19:56:45;22.40;;;9.33;;
23449;SDS011;11897;45.438;12.128;2023-01-30T19:59:13;20.40;;;9.13;;
23449;SDS011;11897;45.438;12.128;2023-01-30T20:01:40;17.07;;;8.40;;
23449;SDS011;11897;45.438;12.128;2023-01-30T20:04:07;17.33;;;8.97;;
23449;SDS011;11897;45.438;12.128;2023-01-30T20:06:34;17.50;;;8.83;;
23449;SDS011;11897;45.438;12.128;2023-01-30T20:09:02;14.13;;;7.87;;
23449;SDS011;11897;45.438;12.128;2023-01-30T20:11:29;17.07;;;8.33;;
23449;SDS011;11897;45.438;12.128;2023-01-30T20:13:57;18.13;;;7.47;;
23449;SDS011;11897;45.438;12.128;2023-01-30T20:16:24;15.57;;;7.43;;
23449;SDS011;11897;45.438;12.128;2023-01-30T20:18:55;17.00;;;7.93;;
23449;SDS011;11897;45.438;12.128;2023-01-30T20:21:22;21.87;;;8.93;;
23449;SDS011;11897;45.438;12.128;2023-01-30T20:23:49;21.50;;;7.47;;